Detall de PIREP

Printer-friendly versionPDF version

[2017/11/16 09:42:00]
Flight IATA:CT0001
Pilot Number:041
Company ICAO:CAT
Aircraft Type:B763/F
PAX:123
Departing Airport: LEVC
Destination Airport: LEBL
Alternate Airport:LEPA
Online: VATSIM
Route:SOPE4A SOPET N608 MATEX MT1DCZ
Flight Level:FL240
No Slew and time accel
No pause
Crash detect
Detect pilot in Cockpit between each 30 and 45 minutes
09:42 Zero fuel Weight: 202382 Lbs, Fuel Weight: 61666 Lbs
09:42 VATSIM:LEVC 160900Z VRB01KT CAVOK 11/M01 Q1021 NOSIG
09:42 VATSIM:LEBL 160900Z 33010KT CAVOK 09/00 Q1021 NOSIG
09:42 VOICE CATALONIAN
09:54 Parking Brakes off
10:01 Take-off
10:01 Take off Weight: 306466 Lbs
10:01 Wind: 308º @ 003 Knots Heading: 116º
10:01 POS N39º 29´ 26´´ W000º 29´ 06´´
10:01 Flaps:4 at 153 Knots
10:01 Gear Up: 155 Knots
10:01 Flaps:3 at 155 Knots
10:02 Flaps:2 at 191 Knots
10:02 Flaps:0 at 192 Knots
10:10 TOC
10:10 Fuel Weight: 57268Lb
10:16 Wind:212º@052 Knots Heading: 050º Ground Speed: 483 Knots Altitude 24005 ft
10:17 TOD
10:17 Fuel Weight: 56063 Lb
10:17 TOC
10:17 Fuel Weight: 56057 Lb
10:19 TOD
10:19 Fuel Weight: 55898 Lb
10:31 Wind:245º@022 Knots Heading: 125º Ground Speed: 286 Knots Altitude 9855 ft
10:31 Flaps:1 at 239 Knots
10:31 Flaps:2 at 234 Knots
10:31 Flaps:3 at 222 Knots
10:35 Flaps:4 at 202 Knots
10:42 Flaps:5 at 202 Knots
10:42 Flaps:6 at 200 Knots
10:42 Gear Down: 199 Knots
10:43 Flaps:7 at 175 Knots
10:46 Wind:307º@003 Knots Heading: 246º Ground Speed: 142 Knots Altitude 524 ft
10:46 TOC
10:46 Fuel Weight: 52933 Lb
10:46 TouchDown:Rate -365 ft/min Speed: 142 Knots
10:47 VATSIM:LEBL 161030Z 33008KT 280V010 9999 FEW025 13/02 Q1022 NOSIG
10:47 Land
10:47 Wind:307º@003 Knots
10:47 Heading: 245º
10:47 Flight Duration: 00:46
10:47 Landing Weight: 298627 Lbs
10:47POS N41º 17´ 57´´ E002º 05´ 05´´
10:49 Parking brakes on
10:49 Block to Block Duration: 00:55
10:49 Final Fuel: 52716 Lbls
10:49 Spent Fuel: 8950 Lbls
10:49 Flight Length: 253 NM
10:49 TOD Land Length: 128 NM

Exportar CSV

Powered by Drupal - Modified by Danger4k